Time;durP1;ratioP1;P1;durP2;ratioP2;P2;SDS_P1;SDS_P2;PMS_P1;PMS_P2;Temp;Humidity;BMP_temperature;BMP_pressure;BME280_temperature;BME280_humidity;BME280_pressure;Samples;Min_cycle;Max_cycle;Signal;HPM_P1;HPM_P2
2022/12/11 00:01:11;;;;;;;2.22;0.70;;;;;;;16.40;59.29;95005.22;5114138;28;20474;-33
2022/12/11 00:03:37;;;;;;;2.05;0.75;;;;;;;16.14;59.89;95005.47;5113938;28;20051;-35
2022/12/11 00:06:07;;;;;;;1.50;0.60;;;;;;;16.16;59.73;95011.19;5114146;28;20533;-33
2022/12/11 00:08:33;;;;;;;2.00;0.70;;;;;;;16.21;59.82;95012.44;5099217;28;20020;-34
2022/12/11 00:10:59;;;;;;;2.00;1.20;;;;;;;16.11;59.35;95009.19;5114037;28;20035;-33
2022/12/11 00:13:25;;;;;;;1.60;0.68;;;;;;;16.29;59.26;95018.16;5113463;28;20035;-34
2022/12/11 00:15:50;;;;;;;2.15;0.70;;;;;;;16.29;59.22;95026.38;5114086;28;20405;-34
2022/12/11 00:18:16;;;;;;;1.08;0.60;;;;;;;16.30;58.81;95023.16;5113814;28;20096;-34
2022/12/11 00:20:41;;;;;;;1.25;0.70;;;;;;;16.26;58.70;95025.38;5113356;28;20034;-33
2022/12/11 00:23:07;;;;;;;1.10;0.70;;;;;;;16.34;58.83;95023.63;5114014;28;20020;-33
2022/12/11 00:25:32;;;;;;;0.93;0.57;;;;;;;16.38;59.02;95031.59;5114042;28;20095;-33
2022/12/11 00:27:58;;;;;;;0.70;0.60;;;;;;;16.44;58.80;95037.81;5112817;28;20031;-33
2022/12/11 00:30:23;;;;;;;1.15;0.55;;;;;;;16.51;58.66;95043.53;5113530;28;20028;-33
2022/12/11 00:32:51;;;;;;;1.20;0.90;;;;;;;16.49;58.54;95054.22;5113542;28;20562;-33
2022/12/11 00:35:16;;;;;;;2.20;0.50;;;;;;;16.50;58.35;95060.44;5113787;28;20030;-33
2022/12/11 00:37:41;;;;;;;2.72;0.70;;;;;;;16.59;58.03;95070.38;5113347;28;20031;-33
2022/12/11 00:40:08;;;;;;;1.73;0.50;;;;;;;16.52;58.53;95077.13;5112666;28;20519;-33
2022/12/11 00:42:33;;;;;;;0.50;0.40;;;;;;;16.40;59.07;95067.41;5113383;28;20030;-33
2022/12/11 00:44:58;;;;;;;0.75;0.47;;;;;;;16.54;58.39;95071.91;5113190;28;20020;-33
2022/12/11 00:47:24;;;;;;;2.22;0.70;;;;;;;16.39;58.89;95082.34;5113215;28;20027;-33
2022/12/11 00:49:49;;;;;;;0.68;0.40;;;;;;;16.41;58.75;95074.38;5113177;27;20063;-33
2022/12/11 00:52:16;;;;;;;1.10;0.50;;;;;;;16.23;59.41;95080.31;5112380;27;20035;-34
2022/12/11 00:54:42;;;;;;;2.50;0.80;;;;;;;16.33;58.92;95056.94;5113406;28;20035;-34
2022/12/11 00:57:07;;;;;;;1.10;0.40;;;;;;;16.40;58.75;95067.41;5113069;28;20439;-33
2022/12/11 00:59:32;;;;;;;1.40;0.52;;;;;;;16.43;58.69;95067.16;5111222;28;20096;-33
2022/12/11 01:01:58;;;;;;;0.80;0.50;;;;;;;16.37;58.85;95068.41;5113180;28;20058;-33
2022/12/11 01:04:23;;;;;;;2.65;0.60;;;;;;;16.37;58.79;95082.09;5113228;28;20035;-33
2022/12/11 01:06:49;;;;;;;1.55;0.70;;;;;;;16.51;58.38;95084.56;5109250;28;20040;-33
2022/12/11 01:11:58;;;;;;;2.15;0.60;;;;;;;16.39;58.59;95082.34;5112941;28;20058;-33
2022/12/11 01:14:25;;;;;;;0.75;0.50;;;;;;;16.33;58.89;95082.31;5111547;28;20460;-33
2022/12/11 01:16:51;;;;;;;1.08;0.60;;;;;;;16.36;58.58;95084.06;5111284;28;20085;-33
2022/12/11 01:19:16;;;;;;;1.75;0.65;;;;;;;16.46;58.38;95092.78;5113105;27;20031;-33
2022/12/11 01:21:41;;;;;;;2.00;0.70;;;;;;;16.38;58.60;95089.06;5112606;28;20477;-33
2022/12/11 01:24:07;;;;;;;1.05;0.40;;;;;;;16.39;58.62;95085.06;5112738;28;20369;-33
2022/12/11 01:26:33;;;;;;;1.38;0.47;;;;;;;16.49;58.47;95087.06;5112747;28;20024;-33
2022/12/11 01:28:59;;;;;;;1.55;0.60;;;;;;;16.51;58.36;95100.25;5112673;28;20448;-33
2022/12/11 01:31:24;;;;;;;0.77;0.50;;;;;;;16.61;57.81;95103.47;5112585;28;20106;-34
2022/12/11 01:33:53;;;;;;;1.38;0.47;;;;;;;16.60;57.90;95110.94;5112166;28;20115;-33
2022/12/11 01:36:20;;;;;;;3.03;0.50;;;;;;;16.53;57.98;95108.72;5112589;28;20038;-35
2022/12/11 01:38:47;;;;;;;1.08;0.47;;;;;;;16.54;58.22;95107.47;5112420;28;20433;-33
2022/12/11 01:41:13;;;;;;;1.05;0.68;;;;;;;16.50;58.25;95110.44;5112664;28;20024;-34
2022/12/11 01:44:02;;;;;;;1.38;0.85;;;;;;;16.51;57.96;95101.00;5112703;28;20027;-33
2022/12/11 01:46:30;;;;;;;1.00;0.50;;;;;;;16.42;58.41;95095.78;5100227;28;20780;-34
2022/12/11 01:48:56;;;;;;;0.95;0.50;;;;;;;16.38;58.48;95105.47;5111951;28;20093;-33
2022/12/11 01:51:23;;;;;;;1.10;0.70;;;;;;;16.50;58.28;95098.75;5112561;28;20023;-33
2022/12/11 01:53:57;;;;;;;0.85;0.50;;;;;;;16.45;58.05;95094.00;5112294;27;20039;-34
2022/12/11 01:56:24;;;;;;;1.13;0.38;;;;;;;16.61;57.80;95112.44;5111815;28;20032;-33
2022/12/11 01:58:55;;;;;;;1.10;0.50;;;;;;;16.56;57.96;95107.72;5110350;28;20016;-34
2022/12/11 02:01:50;;;;;;;3.03;0.73;;;;;;;16.58;57.73;95105.22;5112204;28;20064;-34
2022/12/11 02:04:17;;;;;;;2.17;0.52;;;;;;;16.58;58.10;95104.47;5110491;28;20055;-34
2022/12/11 02:06:45;;;;;;;1.50;0.80;;;;;;;16.53;58.02;95098.50;5108985;28;20024;-33
2022/12/11 02:09:15;;;;;;;0.70;0.45;;;;;;;16.59;57.90;95109.44;5102698;28;20024;-33
2022/12/11 02:11:49;;;;;;;1.85;0.70;;;;;;;16.57;58.09;95109.19;5107479;28;20107;-33
2022/12/11 02:14:37;;;;;;;1.75;0.70;;;;;;;16.49;58.12;95119.16;5111940;28;20034;-33
2022/12/11 02:17:20;;;;;;;0.77;0.50;;;;;;;16.55;58.08;95119.91;5112149;28;20546;-33
2022/12/11 02:20:14;;;;;;;2.83;0.90;;;;;;;16.57;57.92;95114.66;5114137;28;20065;-35
2022/12/11 02:22:52;;;;;;;1.58;0.70;;;;;;;16.51;58.30;95108.47;5113956;28;20653;-33
2022/12/11 02:25:31;;;;;;;1.33;0.50;;;;;;;16.63;57.75;95107.25;5112672;28;20503;-33
2022/12/11 02:28:15;;;;;;;3.35;0.60;;;;;;;16.62;57.67;95103.03;5113954;28;20024;-34
2022/12/11 02:30:43;;;;;;;1.70;0.93;;;;;;;16.58;57.77;95099.75;5113805;28;20467;-33
2022/12/11 02:33:12;;;;;;;1.13;0.65;;;;;;;16.66;57.41;95100.03;5113755;28;20392;-33
2022/12/11 02:35:41;;;;;;;2.10;0.88;;;;;;;16.65;57.53;95096.56;5113860;28;20027;-33
2022/12/11 02:38:31;;;;;;;1.58;0.80;;;;;;;16.68;57.16;95109.25;5113545;28;20379;-33
2022/12/11 02:40:59;;;;;;;1.65;0.70;;;;;;;16.62;57.36;95116.69;5112387;28;20057;-33
2022/12/11 02:43:26;;;;;;;1.13;0.70;;;;;;;16.61;57.54;95133.59;5113603;28;20475;-34
2022/12/11 02:45:53;;;;;;;0.95;0.63;;;;;;;16.67;57.45;95128.91;5113668;28;20065;-33
2022/12/11 02:48:23;;;;;;;1.08;0.60;;;;;;;16.68;57.12;95124.94;5113729;28;20030;-33
2022/12/11 02:50:52;;;;;;;2.10;0.73;;;;;;;16.59;57.44;95128.59;5113656;28;20538;-33
2022/12/11 02:53:23;;;;;;;1.67;0.90;;;;;;;16.64;57.04;95124.41;5113632;28;20559;-33
2022/12/11 02:55:58;;;;;;;0.80;0.50;;;;;;;16.56;57.31;95137.84;5113477;28;20106;-33
2022/12/11 02:58:30;;;;;;;2.28;0.75;;;;;;;16.62;57.06;95135.88;5113691;28;20106;-34
2022/12/11 03:00:55;;;;;;;1.33;0.55;;;;;;;16.58;57.18;95126.38;5113300;28;20125;-34
2022/12/11 03:03:21;;;;;;;1.85;0.60;;;;;;;16.62;57.00;95130.38;5112964;28;20055;-34
2022/12/11 03:05:47;;;;;;;3.17;0.70;;;;;;;16.60;57.07;95130.09;5113649;28;20453;-33
2022/12/11 03:08:16;;;;;;;1.50;0.60;;;;;;;16.62;56.93;95116.69;5098904;28;20032;-33
2022/12/11 03:10:42;;;;;;;1.60;0.70;;;;;;;16.61;56.93;95117.91;5110398;28;20016;-33
2022/12/11 03:13:08;;;;;;;0.68;0.50;;;;;;;16.60;56.79;95130.09;5113260;28;20039;-33
2022/12/11 03:15:45;;;;;;;0.73;0.60;;;;;;;16.50;57.09;95126.13;5114443;28;20023;-33
2022/12/11 03:18:17;;;;;;;1.00;0.57;;;;;;;16.63;56.77;95125.66;5117096;28;20020;-33
2022/12/11 03:20:49;;;;;;;1.08;0.70;;;;;;;16.56;56.75;95115.94;5103268;28;20412;-33
2022/12/11 03:23:22;;;;;;;1.77;0.60;;;;;;;16.59;56.76;95117.66;5117474;28;20030;-33
2022/12/11 03:25:55;;;;;;;0.80;0.80;;;;;;;16.65;56.57;95123.19;5117209;28;20039;-33
2022/12/11 03:28:28;;;;;;;;;;;;;;;16.62;56.51;95133.13;5117951;28;20058;-33
2022/12/11 03:30:54;;;;;;;1.08;0.60;;;;;;;16.60;56.53;95146.53;5117165;28;19914;-33
2022/12/11 03:33:33;;;;;;;1.55;0.90;;;;;;;16.57;56.44;95133.81;5117123;28;20098;-35
2022/12/11 03:36:05;;;;;;;2.60;0.80;;;;;;;16.60;56.43;95130.09;5115480;28;20023;-33
2022/12/11 03:38:40;;;;;;;0.67;0.50;;;;;;;16.55;56.37;95130.13;5115863;28;20043;-34
2022/12/11 03:41:07;;;;;;;1.25;0.70;;;;;;;16.56;56.21;95118.69;5116856;28;20459;-34
2022/12/11 03:43:34;;;;;;;0.85;0.73;;;;;;;16.57;56.12;95133.81;5117070;28;20088;-33
2022/12/11 03:46:00;;;;;;;1.20;0.82;;;;;;;16.54;55.85;95132.09;5116829;28;20097;-33
2022/12/11 03:48:31;;;;;;;1.67;0.68;;;;;;;16.59;56.23;95128.59;5116918;28;20106;-33
2022/12/11 03:50:59;;;;;;;1.50;0.77;;;;;;;16.56;55.98;95134.34;5116754;28;20019;-34
2022/12/11 03:53:26;;;;;;;2.25;0.93;;;;;;;16.57;55.64;95136.56;5116493;28;20405;-34
2022/12/11 03:55:55;;;;;;;0.70;0.55;;;;;;;16.54;55.74;95132.09;5116675;28;20085;-35
2022/12/11 03:58:20;;;;;;;4.20;0.80;;;;;;;16.49;55.99;95135.56;5116631;28;20019;-33
2022/12/11 04:00:46;;;;;;;0.80;0.52;;;;;;;16.46;55.86;95131.09;5116679;27;20076;-33
2022/12/11 04:03:11;;;;;;;0.93;0.60;;;;;;;16.53;55.87;95131.34;5115765;28;20077;-33
2022/12/11 04:05:52;;;;;;;0.88;0.63;;;;;;;16.55;55.61;95135.59;5116854;28;20107;-34
2022/12/11 04:08:22;;;;;;;0.82;0.60;;;;;;;16.59;55.54;95128.59;5101786;28;20024;-33
2022/12/11 04:11:33;;;;;;;0.98;0.70;;;;;;;16.53;55.74;95136.09;5116145;28;20465;-34
2022/12/11 04:13:34;;;;;;;1.20;0.60;;;;;;;16.57;55.65;95150.25;5116253;28;20020;-33
2022/12/11 04:15:59;;;;;;;1.35;1.02;;;;;;;16.58;55.34;95145.53;5115219;28;20360;-34
2022/12/11 04:26:37;;;;;;;0.90;0.70;;;;;;;16.52;55.40;95129.13;5115099;28;20031;-35
2022/12/11 04:29:02;;;;;;;1.42;0.88;;;;;;;16.48;55.38;95134.06;5115855;28;20391;-33
2022/12/11 04:31:28;;;;;;;1.05;0.70;;;;;;;16.52;55.34;95134.59;5115954;28;20031;-33
2022/12/11 04:33:54;;;;;;;0.90;0.70;;;;;;;16.47;55.31;95127.09;5115988;28;20023;-35
2022/12/11 04:36:19;;;;;;;1.08;0.50;;;;;;;16.48;55.20;95125.88;5116137;28;20032;-33
2022/12/11 04:38:45;;;;;;;0.60;0.50;;;;;;;16.53;55.16;95122.41;5115771;28;20015;-33
2022/12/11 04:41:13;;;;;;;1.83;0.80;;;;;;;16.48;55.21;95121.13;5115773;28;20019;-34
2022/12/11 04:43:39;;;;;;;1.25;0.70;;;;;;;16.41;55.52;95118.91;5115645;28;20023;-33
2022/12/11 04:46:10;;;;;;;0.85;0.60;;;;;;;16.48;55.29;95114.91;5115992;28;20106;-33
2022/12/11 04:48:37;;;;;;;2.03;0.68;;;;;;;16.52;55.13;95102.50;5115131;28;20051;-36
2022/12/11 04:51:03;;;;;;;1.63;0.70;;;;;;;16.51;55.13;95105.72;5115544;28;20124;-34
2022/12/11 04:53:28;;;;;;;1.33;0.60;;;;;;;16.47;54.98;95103.22;5115486;28;20080;-33
2022/12/11 04:55:54;;;;;;;0.50;0.50;;;;;;;16.42;55.08;95095.03;5115483;28;20410;-33
2022/12/11 04:58:20;;;;;;;2.33;0.70;;;;;;;16.50;54.70;95098.75;5115389;28;20053;-33
2022/12/11 05:00:45;;;;;;;0.70;0.60;;;;;;;16.49;54.73;95103.47;5115713;28;20468;-33
2022/12/11 05:03:11;;;;;;;0.68;0.57;;;;;;;16.48;54.65;95112.19;5114879;28;20040;-33
2022/12/11 05:05:36;;;;;;;2.25;1.35;;;;;;;16.48;54.66;95114.91;5115254;28;20375;-33
2022/12/11 05:08:02;;;;;;;0.65;0.55;;;;;;;16.56;54.71;95115.19;5101257;28;20036;-33
2022/12/11 05:10:28;;;;;;;1.50;0.47;;;;;;;16.47;54.80;95122.38;5113665;28;20023;-34
2022/12/11 05:12:53;;;;;;;2.10;0.80;;;;;;;16.46;54.72;95111.94;5115409;28;20142;-33
2022/12/11 05:15:19;;;;;;;0.90;0.60;;;;;;;16.45;54.68;95113.16;5110045;27;20486;-34
2022/12/11 05:17:44;;;;;;;0.90;0.70;;;;;;;16.49;54.66;95108.22;5115049;28;20476;-33
2022/12/11 05:20:10;;;;;;;0.77;0.60;;;;;;;16.42;54.73;95117.66;5114770;28;20023;-33
2022/12/11 05:22:37;;;;;;;1.58;0.60;;;;;;;16.49;54.57;95116.41;5114837;28;20032;-33
2022/12/11 05:25:03;;;;;;;4.53;0.88;;;;;;;16.44;54.89;95123.38;5114863;28;20034;-33
2022/12/11 05:27:28;;;;;;;1.13;0.70;;;;;;;16.49;54.45;95125.38;5114953;28;20027;-33
2022/12/11 05:29:54;;;;;;;1.42;0.77;;;;;;;16.46;54.87;95136.56;5114740;28;20032;-34
2022/12/11 05:32:19;;;;;;;1.00;0.60;;;;;;;16.50;54.88;95126.13;5114988;28;20064;-33
2022/12/11 05:34:45;;;;;;;1.13;0.60;;;;;;;16.49;54.72;95135.56;5114918;28;20464;-34
2022/12/11 05:37:10;;;;;;;1.40;0.80;;;;;;;16.50;54.91;95137.81;5114730;28;20031;-33
2022/12/11 05:39:36;;;;;;;1.50;0.75;;;;;;;16.41;54.89;95123.63;5114215;28;20018;-33
2022/12/11 05:42:02;;;;;;;2.28;0.80;;;;;;;16.47;54.86;95122.38;5114694;28;20046;-32
2022/12/11 05:44:28;;;;;;;1.63;0.70;;;;;;;16.44;54.87;95128.84;5114592;28;20033;-34
2022/12/11 05:46:53;;;;;;;1.08;0.70;;;;;;;16.47;54.88;95151.75;5114450;28;20076;-33
2022/12/11 05:49:19;;;;;;;1.23;0.90;;;;;;;16.44;54.76;95166.44;5114157;28;20022;-33
2022/12/11 05:51:44;;;;;;;0.60;0.60;;;;;;;16.28;55.06;95150.72;5113096;28;20027;-33
2022/12/11 05:54:10;;;;;;;1.08;0.50;;;;;;;16.39;54.96;95132.34;5114345;28;20403;-33
2022/12/11 05:56:36;;;;;;;1.15;0.80;;;;;;;16.42;54.71;95127.88;5114489;28;20024;-33
2022/12/11 05:59:03;;;;;;;1.60;0.98;;;;;;;16.44;54.47;95115.16;5114156;28;20406;-33
2022/12/11 06:01:35;;;;;;;1.88;0.70;;;;;;;16.45;54.53;95116.66;5112960;28;20034;-33
2022/12/11 06:04:02;;;;;;;1.10;0.70;;;;;;;16.40;54.88;95128.34;5114066;28;20054;-33
2022/12/11 06:06:28;;;;;;;4.25;0.80;;;;;;;16.47;54.86;95130.59;5113633;28;20029;-33
2022/12/11 06:08:56;;;;;;;2.00;0.95;;;;;;;16.46;54.67;95142.03;5100586;28;20028;-33
2022/12/11 06:11:22;;;;;;;1.60;0.70;;;;;;;16.43;54.77;95148.50;5114169;28;20034;-33
2022/12/11 06:13:48;;;;;;;1.27;0.90;;;;;;;16.43;54.88;95140.31;5113890;28;20352;-33
2022/12/11 06:16:14;;;;;;;1.50;0.70;;;;;;;16.36;55.14;95146.25;5114127;28;20019;-33
2022/12/11 06:18:42;;;;;;;2.80;0.73;;;;;;;16.38;55.30;95146.50;5113850;28;20028;-33
2022/12/11 06:21:11;;;;;;;2.50;0.82;;;;;;;16.31;55.26;95141.53;5114495;28;20050;-34
2022/12/11 06:23:37;;;;;;;1.35;0.82;;;;;;;16.17;55.89;95138.53;5114409;28;20054;-34
2022/12/11 06:26:03;;;;;;;1.40;0.70;;;;;;;16.14;55.86;95131.28;5113901;28;20061;-33
2022/12/11 06:28:28;;;;;;;4.05;0.80;;;;;;;16.21;55.81;95118.34;5113826;28;20027;-33
2022/12/11 06:30:56;;;;;;;1.88;0.70;;;;;;;16.31;55.53;95114.19;5113924;28;20479;-33
2022/12/11 06:33:22;;;;;;;2.00;0.85;;;;;;;16.17;55.81;95094.00;5113833;28;20020;-33
2022/12/11 06:35:47;;;;;;;1.58;0.80;;;;;;;16.23;55.61;95107.69;5112626;28;20137;-33
2022/12/11 06:38:13;;;;;;;2.85;0.75;;;;;;;16.24;55.86;95109.16;5113800;28;20022;-33
2022/12/11 06:40:38;;;;;;;1.83;0.77;;;;;;;16.27;55.52;95110.94;5113842;28;20057;-33
2022/12/11 06:43:04;;;;;;;1.02;0.73;;;;;;;16.22;55.84;95117.13;5113695;28;20016;-33
2022/12/11 06:45:29;;;;;;;2.08;0.75;;;;;;;16.25;55.69;95114.16;5113229;28;20023;-34
2022/12/11 06:47:55;;;;;;;2.00;0.70;;;;;;;16.31;55.55;95119.66;5114079;28;20378;-33
2022/12/11 06:50:20;;;;;;;1.73;0.80;;;;;;;16.35;55.50;95117.38;5114227;28;20038;-34
2022/12/11 06:52:46;;;;;;;1.48;0.63;;;;;;;16.36;55.39;95116.16;5118388;28;20020;-33
2022/12/11 06:55:11;;;;;;;1.20;0.60;;;;;;;16.38;55.16;95124.63;5117653;28;20051;-33
2022/12/11 06:57:36;;;;;;;1.52;0.75;;;;;;;16.40;55.18;95133.81;5118082;28;20051;-33
2022/12/11 07:00:03;;;;;;;1.25;0.70;;;;;;;16.46;55.08;95128.34;5118093;28;20019;-33
2022/12/11 07:02:28;;;;;;;1.05;0.85;;;;;;;16.40;55.16;95130.34;5117785;28;20039;-33
2022/12/11 07:04:54;;;;;;;1.20;0.75;;;;;;;16.32;55.32;95127.34;5118096;28;20027;-34
2022/12/11 07:07:19;;;;;;;1.25;0.70;;;;;;;16.34;55.38;95132.31;5117737;28;20043;-33
2022/12/11 07:09:45;;;;;;;2.00;0.60;;;;;;;16.34;55.23;95130.31;5117554;28;20027;-33
2022/12/11 07:12:10;;;;;;;0.95;0.52;;;;;;;16.41;54.95;95134.56;5117886;28;20019;-33
2022/12/11 07:14:36;;;;;;;1.20;0.70;;;;;;;16.40;54.97;95133.09;5117362;28;20106;-33
2022/12/11 07:17:02;;;;;;;1.50;0.65;;;;;;;16.37;55.02;95134.06;5115971;28;20035;-33
2022/12/11 07:19:27;;;;;;;1.98;0.80;;;;;;;16.38;54.93;95130.84;5115931;28;20517;-33
2022/12/11 07:21:53;;;;;;;2.22;0.50;;;;;;;16.38;55.02;95132.81;5099435;28;20424;-34
2022/12/11 07:24:18;;;;;;;1.35;0.70;;;;;;;16.40;54.67;95127.59;5096387;28;20068;-33
2022/12/11 07:26:44;;;;;;;1.08;0.55;;;;;;;16.43;54.85;95132.09;5095809;28;20027;-33
2022/12/11 07:29:10;;;;;;;1.52;0.70;;;;;;;16.32;54.97;95121.84;5096812;28;20031;-33
2022/12/11 07:31:35;;;;;;;1.05;0.60;;;;;;;16.36;54.91;95122.38;5096965;28;20024;-33
2022/12/11 07:34:04;;;;;;;1.45;0.90;;;;;;;16.41;54.72;95120.91;5104737;28;20047;-33
2022/12/11 07:36:31;;;;;;;1.38;0.80;;;;;;;16.38;54.82;95124.63;5108891;28;20035;-34
2022/12/11 07:38:58;;;;;;;1.38;0.70;;;;;;;16.35;54.77;95122.88;5094513;28;20028;-33
2022/12/11 07:41:30;;;;;;;2.10;0.77;;;;;;;16.39;54.64;95120.63;5102215;28;20024;-33
2022/12/11 07:43:58;;;;;;;2.05;0.77;;;;;;;16.40;54.67;95117.41;5115108;28;20124;-33
2022/12/11 07:46:26;;;;;;;0.95;0.63;;;;;;;16.42;54.57;95120.41;5114592;28;20031;-33
2022/12/11 07:48:52;;;;;;;1.60;0.80;;;;;;;16.37;54.71;95125.84;5115043;28;20020;-33
2022/12/11 07:51:29;;;;;;;4.10;1.00;;;;;;;16.37;54.79;95123.13;5105017;27;20918;-33
2022/12/11 07:53:58;;;;;;;1.63;0.85;;;;;;;16.35;54.62;95125.59;5113223;28;20031;-34
2022/12/11 07:56:31;;;;;;;1.92;0.80;;;;;;;16.36;54.76;95140.78;5113821;28;20015;-33
2022/12/11 07:59:02;;;;;;;1.75;0.98;;;;;;;16.33;54.89;95153.44;5113545;28;20723;-33
2022/12/11 08:01:29;;;;;;;1.30;0.80;;;;;;;16.32;54.78;95143.75;5113827;28;20043;-33
2022/12/11 08:03:56;;;;;;;1.23;1.00;;;;;;;16.43;54.52;95154.00;5113349;28;20054;-33
2022/12/11 08:06:30;;;;;;;1.60;0.82;;;;;;;16.36;54.59;95163.41;5111464;28;20037;-32
2022/12/11 08:08:57;;;;;;;2.50;1.08;;;;;;;16.37;54.51;95150.47;5114015;28;20027;-33
2022/12/11 08:11:23;;;;;;;1.88;0.90;;;;;;;16.36;54.50;95148.97;5113878;28;20380;-33
2022/12/11 08:13:49;;;;;;;1.58;0.93;;;;;;;16.39;54.65;95181.59;5113835;28;20023;-33
2022/12/11 08:16:16;;;;;;;1.92;1.20;;;;;;;16.41;54.59;95184.59;5112251;28;20042;-33
2022/12/11 08:18:42;;;;;;;1.83;0.95;;;;;;;16.34;54.32;95176.09;5113844;28;20020;-33
2022/12/11 08:21:11;;;;;;;2.75;0.90;;;;;;;16.37;54.50;95170.38;5114151;28;20762;-33
2022/12/11 08:23:36;;;;;;;1.85;0.80;;;;;;;16.47;54.39;95176.38;5114069;28;20031;-34
2022/12/11 08:26:04;;;;;;;1.73;0.80;;;;;;;16.33;54.72;95178.06;5113729;28;20023;-35
2022/12/11 08:28:30;;;;;;;1.55;1.40;;;;;;;16.40;54.39;95174.13;5113888;28;20030;-34
2022/12/11 08:30:56;;;;;;;2.50;1.10;;;;;;;16.31;54.69;95169.63;5105604;28;20023;-33
2022/12/11 08:33:21;;;;;;;3.33;1.45;;;;;;;16.36;54.84;95181.81;5113612;28;20015;-33
2022/12/11 08:35:47;;;;;;;2.47;1.45;;;;;;;16.32;54.92;95184.06;5113271;28;20032;-33
2022/12/11 08:38:12;;;;;;;2.30;1.60;;;;;;;16.33;54.92;95172.59;5114148;28;20024;-33
2022/12/11 08:40:38;;;;;;;2.25;1.50;;;;;;;16.30;55.15;95173.63;5106257;28;20107;-33
2022/12/11 08:43:03;;;;;;;3.63;1.88;;;;;;;16.34;55.06;95189.78;5093489;28;20380;-34
2022/12/11 08:45:28;;;;;;;2.65;1.98;;;;;;;16.33;55.50;95191.00;5092132;28;20036;-33
2022/12/11 08:47:54;;;;;;;2.72;1.90;;;;;;;16.25;55.31;95190.75;5106016;28;20036;-33
2022/12/11 08:50:19;;;;;;;6.38;1.92;;;;;;;16.21;55.50;95189.47;5111511;28;20024;-33
2022/12/11 08:52:45;;;;;;;3.75;2.38;;;;;;;16.26;55.42;95189.50;5113919;28;20076;-33
2022/12/11 08:55:11;;;;;;;3.45;1.90;;;;;;;16.31;55.44;95197.00;5113612;28;20042;-33
2022/12/11 08:57:38;;;;;;;4.50;2.20;;;;;;;16.21;55.89;95192.22;5113584;28;20459;-33
2022/12/11 09:00:07;;;;;;;4.97;1.95;;;;;;;16.16;55.80;95191.72;5113209;28;20111;-32
2022/12/11 09:02:33;;;;;;;4.60;1.70;;;;;;;16.21;55.81;95192.22;5113575;28;20043;-33
2022/12/11 09:04:59;;;;;;;4.68;2.00;;;;;;;16.29;55.76;95201.47;5102940;28;20028;-32
2022/12/11 09:07:25;;;;;;;4.30;2.13;;;;;;;16.26;55.94;95192.25;5093014;28;20499;-33
2022/12/11 09:09:53;;;;;;;5.43;1.90;;;;;;;16.31;55.84;95179.84;5092847;28;20028;-35
2022/12/11 09:12:19;;;;;;;5.57;2.15;;;;;;;16.38;55.32;95190.28;5092842;28;20478;-33
2022/12/11 09:14:44;;;;;;;6.10;1.70;;;;;;;16.41;55.72;95200.25;5092418;28;20062;-35
2022/12/11 09:17:10;;;;;;;6.00;2.28;;;;;;;16.41;55.81;95200.25;5091083;28;20522;-33
2022/12/11 09:19:35;;;;;;;4.80;2.30;;;;;;;16.42;55.80;95207.22;5107898;28;20035;-33
2022/12/11 09:22:01;;;;;;;3.25;1.85;;;;;;;16.29;56.04;95199.47;5112668;28;20058;-33
2022/12/11 09:24:26;;;;;;;4.78;2.40;;;;;;;16.31;56.07;95196.25;5106153;28;20031;-33
2022/12/11 09:26:53;;;;;;;5.68;1.90;;;;;;;16.34;55.87;95201.47;5094575;28;20043;-33
2022/12/11 09:29:19;;;;;;;4.28;1.48;;;;;;;16.30;56.25;95192.00;5089333;28;20058;-33
2022/12/11 09:31:45;;;;;;;3.38;1.63;;;;;;;16.37;56.08;95202.47;5087339;28;20361;-32
2022/12/11 09:34:12;;;;;;;4.75;2.10;;;;;;;16.34;56.14;95197.97;5088446;28;20690;-32
2022/12/11 09:36:39;;;;;;;5.93;2.33;;;;;;;16.30;56.30;95194.75;5091502;28;20035;-32
2022/12/11 09:39:06;;;;;;;5.18;2.20;;;;;;;16.28;56.66;95197.22;5095714;28;20043;-33
2022/12/11 09:41:54;;;;;;;8.40;2.65;;;;;;;16.18;56.71;95199.44;5112117;28;20472;-34
2022/12/11 09:44:45;;;;;;;6.43;2.05;;;;;;;16.21;56.63;95194.94;5111370;28;20027;-33
2022/12/11 09:47:23;;;;;;;6.45;2.42;;;;;;;16.18;56.51;95193.97;5108593;28;20019;-33
2022/12/11 09:50:08;;;;;;;10.60;2.13;;;;;;;16.05;57.04;95193.69;5111660;28;20023;-32
2022/12/11 09:52:37;;;;;;;6.45;2.33;;;;;;;16.05;56.88;95197.16;5114643;28;20517;-33
2022/12/11 09:55:18;;;;;;;4.43;2.00;;;;;;;16.12;56.71;95191.19;5114573;28;20058;-32
2022/12/11 09:57:55;;;;;;;5.53;1.52;;;;;;;16.19;56.59;95189.25;5114396;28;20024;-34
2022/12/11 10:00:38;;;;;;;5.82;1.80;;;;;;;15.99;57.09;95192.91;5114143;28;20030;-32
2022/12/11 10:03:26;;;;;;;7.10;1.63;;;;;;;16.17;56.80;95185.00;5114784;27;20384;-32
2022/12/11 10:06:11;;;;;;;5.13;2.13;;;;;;;16.12;56.61;95177.53;5114575;28;20149;-34
2022/12/11 10:09:02;;;;;;;7.15;2.25;;;;;;;16.10;56.64;95177.28;5099003;28;20036;-33
2022/12/11 10:12:10;;;;;;;6.28;1.80;;;;;;;16.26;56.38;95170.34;5114797;28;20076;-33
2022/12/11 10:14:41;;;;;;;7.95;2.03;;;;;;;16.07;57.14;95166.59;5114557;28;20024;-32
2022/12/11 10:17:07;;;;;;;7.55;2.08;;;;;;;16.04;57.15;95160.13;5114296;28;20447;-32
2022/12/11 10:19:33;;;;;;;5.47;1.90;;;;;;;16.03;56.93;95163.34;5114289;28;20049;-33
2022/12/11 10:22:01;;;;;;;6.25;1.85;;;;;;;16.26;56.47;95166.88;5113893;28;20016;-33
2022/12/11 10:24:41;;;;;;;10.77;2.03;;;;;;;16.24;56.68;95163.88;5114056;28;20027;-36
2022/12/11 10:27:20;;;;;;;8.07;2.10;;;;;;;15.99;57.20;95160.06;5114173;28;20019;-35
2022/12/11 10:29:50;;;;;;;5.38;1.80;;;;;;;16.04;57.02;95151.16;5113875;28;20073;-35
2022/12/11 10:32:29;;;;;;;9.98;2.58;;;;;;;16.05;56.87;95156.13;5111222;28;20035;-35
2022/12/11 10:35:04;;;;;;;8.43;1.80;;;;;;;16.11;56.76;95175.28;5113636;28;20124;-35
2022/12/11 10:37:29;;;;;;;10.60;1.73;;;;;;;16.06;56.72;95159.63;5114135;28;20081;-37
2022/12/11 10:39:55;;;;;;;11.82;2.92;;;;;;;16.05;56.84;95163.59;5114037;28;20023;-35
2022/12/11 10:42:22;;;;;;;6.13;1.90;;;;;;;16.09;56.52;95148.44;5113805;28;20051;-35
2022/12/11 10:45:02;;;;;;;10.65;2.10;;;;;;;15.98;56.64;95144.91;5113283;28;20024;-32
2022/12/11 10:47:28;;;;;;;8.85;1.70;;;;;;;16.13;56.30;95157.16;5108837;28;20035;-33
2022/12/11 10:50:02;;;;;;;10.05;2.03;;;;;;;16.28;55.87;95153.47;5106817;28;20020;-32
2022/12/11 10:52:37;;;;;;;6.40;1.67;;;;;;;16.19;56.17;95150.97;5113948;28;20540;-33
2022/12/11 10:55:16;;;;;;;6.30;1.90;;;;;;;16.07;56.59;95155.66;5113842;28;20031;-34
2022/12/11 10:57:42;;;;;;;9.57;2.75;;;;;;;15.31;52.25;95137.16;5113710;28;20039;-34
2022/12/11 11:00:36;;;;;;;9.20;2.28;;;;;;;15.54;55.99;95148.19;5112719;28;20020;-35
2022/12/11 11:03:04;;;;;;;12.13;1.85;;;;;;;15.89;55.35;95134.19;5113272;28;20449;-36
2022/12/11 11:05:34;;;;;;;9.73;2.20;;;;;;;16.01;54.74;95150.16;5113616;28;20384;-35
2022/12/11 11:08:12;;;;;;;5.38;2.03;;;;;;;16.06;54.58;95135.75;5113609;28;20464;-35
2022/12/11 11:10:49;;;;;;;7.43;1.80;;;;;;;16.13;54.84;95138.00;5112326;28;20020;-37
2022/12/11 11:13:14;;;;;;;9.00;2.25;;;;;;;15.96;53.73;95126.25;5113723;28;20118;-36
2022/12/11 11:15:40;;;;;;;11.90;2.10;;;;;;;16.13;54.88;95124.31;5113846;28;20066;-35
2022/12/11 11:18:15;;;;;;;8.93;1.75;;;;;;;16.26;53.72;95128.56;5113318;28;20035;-35
2022/12/11 11:20:46;;;;;;;6.53;1.40;;;;;;;16.21;54.11;95124.59;5113691;28;20027;-36
2022/12/11 11:23:15;;;;;;;6.00;1.63;;;;;;;16.14;54.87;95128.56;5113336;28;20102;-36
2022/12/11 11:25:59;;;;;;;6.93;2.15;;;;;;;16.29;54.50;95122.13;5113376;28;20349;-37
2022/12/11 11:28:29;;;;;;;7.38;1.67;;;;;;;16.11;55.00;95126.81;5113556;28;20039;-35
2022/12/11 11:31:05;;;;;;;5.05;1.50;;;;;;;16.02;55.19;95115.34;5098569;28;20035;-37
2022/12/11 11:33:33;;;;;;;7.15;2.10;;;;;;;16.20;54.08;95117.63;5091234;28;20024;-36
2022/12/11 11:36:01;;;;;;;5.78;1.90;;;;;;;16.23;54.18;95121.34;5093146;28;20081;-35
2022/12/11 11:38:34;;;;;;;7.10;2.20;;;;;;;16.03;54.42;95111.38;5096929;28;20042;-35
2022/12/11 11:41:11;;;;;;;6.63;1.85;;;;;;;16.16;53.94;95120.59;5097392;28;20027;-35
2022/12/11 11:43:41;;;;;;;5.40;1.83;;;;;;;16.23;53.19;95111.16;5096836;28;20020;-36
2022/12/11 11:46:36;;;;;;;6.25;1.60;;;;;;;16.17;53.15;95115.88;5096940;28;20028;-35
2022/12/11 11:49:36;;;;;;;8.30;2.05;;;;;;;16.13;53.81;95135.28;5069741;28;20032;-35
2022/12/11 11:52:17;;;;;;;9.32;1.83;;;;;;;16.21;53.79;95129.31;5034342;28;20072;-37
2022/12/11 11:54:51;;;;;;;5.25;1.90;;;;;;;16.11;54.50;95118.59;5034479;28;20040;-36